Weather at Limbang Airport

Public forecast

Using degrees Celsius for public forecast. Weather courtesy of forecast.io.

Closest aviation weather report (METAR) to Limbang Airport

Closest report is Brunei International Airport, 9.5 nm (17.6 km) NNW.

2024/04/21 21:00 (retrieved 34 minutes ago)

WBSB 212100Z 25006KT 9999 -TSRA FEW003 SCT014 FEW015CB BKN150 26/26 Q1008 NOSIG

Closest aviation forecast (TAF) to Limbang Airport

Closest forecast is Brunei International Airport, 9.5 nm (17.6 km) NNW.

2024/04/21 18:13 (retrieved 3 hours ago)

TAF WBSB 211700Z 2118/2300 20003KT 9999 SCT014 FEW015CB TEMPO 2118/2120 8000 -SHRA TSRA BECMG 2203/2205 32010KT SCT015 FEW016CB